Time;durP1;ratioP1;P1;durP2;ratioP2;P2;SDS_P1;SDS_P2;PMS_P1;PMS_P2;Temp;Humidity;BMP_temperature;BMP_pressure;BME280_temperature;BME280_humidity;BME280_pressure;Samples;Min_cycle;Max_cycle;Signal;HPM_P1;HPM_P2
2023/04/12 00:01:24;;;;;;;0.00;0.00;;;;;;;-145.06;100.00;99392.75;10501450;28;20274;-78
2023/04/12 00:06:31;;;;;;;0.00;0.00;;;;;;;-145.06;100.00;99331.31;10491902;28;20028;-77
2023/04/12 00:11:31;;;;;;;0.00;0.00;;;;;;;-145.06;100.00;99534.09;10498437;28;20031;-76
2023/04/12 00:16:32;;;;;;;0.00;0.00;;;;;;;-145.06;100.00;99450.13;10484192;28;20023;-77
2023/04/12 00:21:32;;;;;;;0.00;0.00;;;;;;;-145.06;100.00;99566.88;10477877;28;20379;-77
2023/04/12 00:26:32;;;;;;;0.00;0.00;;;;;;;-145.06;100.00;99581.22;10491003;28;20020;-77
2023/04/12 00:31:32;;;;;;;0.00;0.00;;;;;;;-145.06;100.00;99601.69;10485930;28;20279;-77
2023/04/12 00:36:33;;;;;;;0.00;0.00;;;;;;;-145.06;100.00;99634.47;10489092;28;20035;-76
2023/04/12 00:41:35;;;;;;;0.00;0.00;;;;;;;-145.06;100.00;99560.72;10472875;28;20016;-77
2023/04/12 00:46:36;;;;;;;0.00;0.00;;;;;;;-145.06;100.00;99685.69;10479528;28;20012;-77
2023/04/12 00:51:38;;;;;;;0.00;0.00;;;;;;;-145.06;100.00;99613.97;10467623;28;20074;-77
2023/04/12 00:56:39;;;;;;;0.00;0.00;;;;;;;-145.06;100.00;99597.59;10489236;28;20421;-77
2023/04/12 01:01:39;;;;;;;0.00;0.00;;;;;;;-145.06;100.00;99646.75;10486129;28;20031;-77
2023/04/12 01:07:02;;;;;;;0.00;0.00;;;;;;;-145.06;100.00;99697.97;10475366;28;20108;-77
2023/04/12 01:12:17;;;;;;;0.00;0.00;;;;;;;-145.06;100.00;99687.72;10500696;28;20157;-77
2023/04/12 01:17:23;;;;;;;0.00;0.00;;;;;;;-145.06;100.00;99720.50;10494432;28;20035;-77
2023/04/12 01:22:37;;;;;;;0.00;0.00;;;;;;;-145.06;100.00;99632.41;10500793;28;20039;-77
2023/04/12 01:27:55;;;;;;;0.00;0.00;;;;;;;-145.06;100.00;99654.94;10484732;28;20025;-78
2023/04/12 01:33:00;;;;;;;0.00;0.00;;;;;;;-145.06;100.00;99622.19;10496167;28;20024;-77
2023/04/12 01:38:02;;;;;;;0.10;0.10;;;;;;;-145.06;100.00;99585.31;10502559;28;20028;-78
2023/04/12 01:43:14;;;;;;;0.00;0.00;;;;;;;-145.06;100.00;99671.34;10492774;28;20021;-77
2023/04/12 01:48:15;;;;;;;0.00;0.00;;;;;;;-145.06;100.00;99671.34;10474549;28;20056;-78
2023/04/12 01:53:31;;;;;;;0.00;0.00;;;;;;;-145.06;100.00;99700.00;10496165;28;20675;-77
2023/04/12 01:58:33;;;;;;;0.00;0.00;;;;;;;-145.06;100.00;99693.88;10482349;28;20115;-77
2023/04/12 02:03:36;;;;;;;0.00;0.00;;;;;;;-145.06;100.00;99628.31;10491120;28;20041;-77
2023/04/12 02:08:36;;;;;;;0.00;0.00;;;;;;;-145.06;100.00;99589.41;10488221;28;20365;-77
2023/04/12 02:13:37;;;;;;;0.00;0.00;;;;;;;-145.06;100.00;99618.09;10486786;28;20016;-77
2023/04/12 02:18:40;;;;;;;0.00;0.00;;;;;;;-145.06;100.00;99564.81;10494845;28;20534;-77
2023/04/12 02:23:42;;;;;;;0.00;0.00;;;;;;;-145.06;100.00;99640.63;10490028;28;20012;-77
2023/04/12 02:28:43;;;;;;;0.00;0.00;;;;;;;-145.06;100.00;99626.28;10470604;28;20027;-76
2023/04/12 02:33:44;;;;;;;0.00;0.00;;;;;;;-145.06;100.00;99677.47;10486923;28;20301;-76
2023/04/12 02:38:44;;;;;;;0.00;0.00;;;;;;;-145.06;100.00;99661.09;10484761;28;20418;-76
2023/04/12 02:43:45;;;;;;;0.00;0.00;;;;;;;-145.06;100.00;99659.06;10481685;28;20032;-76
2023/04/12 02:48:46;;;;;;;0.00;0.00;;;;;;;-145.06;100.00;99560.72;10463247;28;20048;-76
2023/04/12 02:53:46;;;;;;;0.00;0.00;;;;;;;-145.06;100.00;99636.50;10479671;28;20016;-77
2023/04/12 02:58:46;;;;;;;0.00;0.00;;;;;;;-145.06;100.00;99603.75;10486767;28;20471;-77
2023/04/12 03:03:47;;;;;;;0.00;0.00;;;;;;;-145.06;100.00;99607.84;10484802;28;20521;-77
2023/04/12 03:08:47;;;;;;;0.00;0.00;;;;;;;-145.06;100.00;99599.66;10486327;28;21177;-77
2023/04/12 03:13:47;;;;;;;0.00;0.00;;;;;;;-145.06;100.00;99609.88;10489018;28;20291;-77
2023/04/12 03:18:49;;;;;;;0.00;0.00;;;;;;;-145.06;100.00;99601.69;10489797;28;20028;-77
2023/04/12 03:23:50;;;;;;;0.00;0.00;;;;;;;-145.06;100.00;99616.03;10499261;23;20021;-75
2023/04/12 03:28:50;;;;;;;0.00;0.00;;;;;;;-145.06;100.00;99601.69;10460309;28;20673;-76
2023/04/12 03:33:50;;;;;;;0.00;0.00;;;;;;;-145.06;100.00;99613.97;10482853;28;20402;-77
2023/04/12 03:38:51;;;;;;;0.00;0.00;;;;;;;-145.06;100.00;99663.16;10492377;28;20394;-76
2023/04/12 03:43:51;;;;;;;0.00;0.00;;;;;;;-145.06;100.00;99622.19;10492725;28;20103;-77
2023/04/12 03:48:51;;;;;;;0.00;0.00;;;;;;;-145.06;100.00;99673.38;10484354;28;20277;-77
2023/04/12 03:53:53;;;;;;;0.00;0.00;;;;;;;-145.06;100.00;99613.97;10492300;28;20024;-77
2023/04/12 03:58:53;;;;;;;0.00;0.00;;;;;;;-145.06;100.00;99579.16;10471023;28;20077;-77
2023/04/12 04:03:53;;;;;;;0.00;0.00;;;;;;;-145.06;100.00;99685.69;10484935;28;20016;-76
2023/04/12 04:08:55;;;;;;;0.00;0.00;;;;;;;-145.06;100.00;99654.94;10489732;28;20028;-76
2023/04/12 04:13:55;;;;;;;0.00;0.00;;;;;;;-145.06;100.00;99726.66;10489701;28;20279;-76
2023/04/12 04:18:55;;;;;;;0.00;0.00;;;;;;;-145.06;100.00;99566.88;10491101;28;20040;-77
2023/04/12 04:23:59;;;;;;;0.00;0.00;;;;;;;-145.06;100.00;99618.09;10483781;28;20012;-77
2023/04/12 04:29:03;;;;;;;0.00;0.00;;;;;;;-145.06;100.00;99693.88;10491435;28;20017;-77
2023/04/12 04:34:04;;;;;;;0.00;0.00;;;;;;;-145.06;100.00;99634.47;10490182;28;20334;-77
2023/04/12 04:39:04;;;;;;;0.00;0.00;;;;;;;-145.06;100.00;99570.97;10486963;28;20536;-77
2023/04/12 04:44:09;;;;;;;0.00;0.00;;;;;;;-145.06;100.00;99581.22;10490995;28;20040;-77
2023/04/12 04:49:09;;;;;;;0.00;0.00;;;;;;;-145.06;100.00;99446.03;10490290;28;20020;-76
2023/04/12 04:54:10;;;;;;;0.00;0.00;;;;;;;-145.06;100.00;99601.69;10482473;28;20475;-76
2023/04/12 04:59:10;;;;;;;0.00;0.00;;;;;;;-145.06;100.00;99648.81;10490671;28;20025;-76
2023/04/12 05:04:10;;;;;;;0.00;0.00;;;;;;;-145.06;100.00;99439.88;10486201;28;20017;-76
2023/04/12 05:09:11;;;;;;;0.00;0.00;;;;;;;-145.06;100.00;99458.31;10489351;28;20426;-77
2023/04/12 05:14:11;;;;;;;0.00;0.00;;;;;;;-145.06;100.00;99372.28;10488954;28;20024;-77
2023/04/12 05:19:11;;;;;;;0.00;0.00;;;;;;;-145.06;100.00;99298.53;10490616;28;20052;-76
2023/04/12 05:24:12;;;;;;;0.00;0.00;;;;;;;-145.06;100.00;98886.88;10489698;28;20101;-76
2023/04/12 05:29:12;;;;;;;0.00;0.00;;;;;;;-145.06;98.54;98643.16;10484130;28;20039;-77
2023/04/12 05:34:12;;;;;;;0.00;0.00;;;;;;;-145.06;89.76;98677.97;10490407;28;20336;-77
2023/04/12 05:39:12;;;;;;;0.00;0.00;;;;;;;-145.06;89.47;99097.81;10487600;28;20028;-77
2023/04/12 05:44:13;;;;;;;0.05;0.05;;;;;;;-145.06;97.68;98770.13;10487681;28;20031;-77
2023/04/12 05:49:13;;;;;;;0.07;0.07;;;;;;;-145.06;87.66;98682.06;10479459;28;20522;-77
2023/04/12 05:54:14;;;;;;;0.03;0.03;;;;;;;-145.06;78.76;98534.63;10484201;28;20161;-77
2023/04/12 05:59:15;;;;;;;0.10;0.10;;;;;;;-145.06;75.43;98598.09;10462540;28;20266;-77
2023/04/12 06:04:15;;;;;;;0.10;0.10;;;;;;;-145.06;74.71;97811.78;10474643;28;20039;-77
2023/04/12 06:09:16;;;;;;;0.00;0.00;;;;;;;-145.06;72.96;97834.31;10484365;28;20017;-77
2023/04/12 06:14:16;;;;;;;0.10;0.10;;;;;;;-145.06;70.60;97817.94;10489551;28;20024;-77
2023/04/12 06:19:16;;;;;;;0.10;0.10;;;;;;;-145.06;75.99;98401.50;10491862;28;20017;-77
2023/04/12 06:24:17;;;;;;;0.10;0.10;;;;;;;-145.06;74.76;97815.88;10489195;28;20020;-77
2023/04/12 06:29:17;;;;;;;0.10;0.10;;;;;;;-145.06;71.72;97609.09;10496716;28;20021;-77
2023/04/12 06:34:17;;;;;;;0.10;0.10;;;;;;;-145.06;70.00;97926.44;10494194;28;20025;-77
2023/04/12 06:39:18;;;;;;;0.10;0.10;;;;;;;-145.06;73.50;98141.44;10496703;28;20024;-77
2023/04/12 06:44:18;;;;;;;0.10;0.10;;;;;;;-145.06;80.99;98335.97;10486252;28;20020;-77
2023/04/12 06:49:18;;;;;;;0.10;0.10;;;;;;;-145.06;89.21;98503.91;10488798;28;20020;-77
2023/04/12 06:54:18;;;;;;;0.10;0.10;;;;;;;-145.06;92.67;98530.53;10494898;28;20016;-77
2023/04/12 06:59:19;;;;;;;0.00;0.00;;;;;;;-145.06;97.56;98692.31;10487557;28;20024;-77
2023/04/12 07:04:19;;;;;;;0.00;0.00;;;;;;;-145.06;99.90;98630.88;10466436;28;20104;-76
2023/04/12 07:09:20;;;;;;;0.10;0.10;;;;;;;-145.06;100.00;98796.75;10474495;28;20021;-76
2023/04/12 07:14:20;;;;;;;0.10;0.10;;;;;;;-145.06;100.00;98704.59;10487516;28;20012;-76
2023/04/12 07:19:21;;;;;;;0.00;0.00;;;;;;;-145.06;100.00;98675.94;10489790;28;20017;-76
2023/04/12 07:24:21;;;;;;;0.00;0.00;;;;;;;-145.06;100.00;98733.25;10488220;28;20094;-76
2023/04/12 07:29:22;;;;;;;0.10;0.10;;;;;;;-145.06;100.00;98792.66;10484852;28;20554;-77
2023/04/12 07:34:22;;;;;;;0.00;0.00;;;;;;;-145.06;100.00;98794.72;10487151;28;20073;-77
2023/04/12 07:39:23;;;;;;;0.00;0.00;;;;;;;-145.06;100.00;98714.84;10491455;28;20073;-77
2023/04/12 07:44:23;;;;;;;0.03;0.03;;;;;;;-145.06;100.00;98751.69;10471244;28;20015;-77
2023/04/12 07:49:23;;;;;;;0.00;0.00;;;;;;;-145.06;100.00;98749.66;10488473;28;20026;-75
2023/04/12 07:54:27;;;;;;;0.00;0.00;;;;;;;-145.06;100.00;98759.88;10477918;28;20085;-76
2023/04/12 07:59:27;;;;;;;0.00;0.00;;;;;;;-145.06;100.00;98630.88;10490048;28;20028;-77
2023/04/12 08:04:28;;;;;;;0.10;0.10;;;;;;;-145.06;100.00;98594.00;10486702;28;20031;-77
2023/04/12 08:09:29;;;;;;;0.10;0.10;;;;;;;-145.06;100.00;98690.25;10481504;28;20027;-77
2023/04/12 08:14:29;;;;;;;0.00;0.00;;;;;;;-145.06;100.00;98639.06;10488085;28;20074;-76
2023/04/12 08:19:29;;;;;;;0.00;0.00;;;;;;;-145.06;100.00;98688.22;10484889;28;20024;-75
2023/04/12 08:24:29;;;;;;;0.00;0.00;;;;;;;-145.06;100.00;98594.00;10484499;28;20025;-76
2023/04/12 08:29:30;;;;;;;0.03;0.03;;;;;;;-145.06;100.00;98716.88;10487490;28;20094;-76
2023/04/12 08:34:31;;;;;;;0.00;0.00;;;;;;;-145.06;100.00;98557.16;10480479;28;20029;-76
2023/04/12 08:39:32;;;;;;;0.10;0.10;;;;;;;-145.06;97.73;98688.22;10467073;28;20046;-76
2023/04/12 08:44:36;;;;;;;0.00;0.00;;;;;;;-145.06;97.01;98671.81;10464892;28;20013;-75
2023/04/12 08:49:37;;;;;;;0.10;0.10;;;;;;;-145.06;96.64;98569.44;10481203;28;20483;-76
2023/04/12 08:54:37;;;;;;;0.10;0.10;;;;;;;-145.06;97.75;98544.84;10468722;28;20066;-76
2023/04/12 08:59:41;;;;;;;0.10;0.10;;;;;;;-145.06;96.46;98546.91;10482562;28;20032;-77
2023/04/12 09:04:52;;;;;;;0.10;0.10;;;;;;;-145.06;96.49;98522.34;10469231;28;20013;-76
2023/04/12 09:09:52;;;;;;;0.10;0.10;;;;;;;-145.06;96.70;98493.66;10487608;28;20036;-77
2023/04/12 09:15:12;;;;;;;0.10;0.10;;;;;;;-145.06;93.35;98602.19;10481938;28;20025;-76
2023/04/12 09:20:14;;;;;;;0.00;0.00;;;;;;;-145.06;95.65;98540.75;10487661;28;20437;-75
2023/04/12 09:25:15;;;;;;;0.08;0.08;;;;;;;-145.06;92.83;98452.72;10476755;22;20045;-75
2023/04/12 09:30:17;;;;;;;0.00;0.00;;;;;;;-145.06;92.59;98508.00;10463455;28;20661;-76
2023/04/12 09:35:17;;;;;;;0.00;0.00;;;;;;;-145.06;92.36;98456.81;10442133;28;20096;-76
2023/04/12 09:40:23;;;;;;;0.03;0.03;;;;;;;-145.06;90.61;98544.84;10428380;28;20214;-76
2023/04/12 09:45:25;;;;;;;0.00;0.00;;;;;;;-145.06;90.03;98544.84;10431214;28;20025;-76
2023/04/12 09:50:32;;;;;;;0.10;0.10;;;;;;;-145.06;96.18;98630.88;10409235;28;20068;-76
2023/04/12 09:55:32;;;;;;;0.10;0.10;;;;;;;-145.06;98.94;98733.25;10427702;28;20033;-76
2023/04/12 10:00:34;;;;;;;0.10;0.10;;;;;;;-145.06;100.00;98825.44;10414458;28;20448;-76
2023/04/12 10:05:35;;;;;;;0.10;0.10;;;;;;;-145.06;100.00;98698.44;10440968;28;20381;-76
2023/04/12 10:10:36;;;;;;;0.10;0.10;;;;;;;-145.06;100.00;98647.25;10435135;28;20032;-76
2023/04/12 10:15:38;;;;;;;0.03;0.03;;;;;;;-145.06;100.00;98626.78;10425807;28;20456;-76
2023/04/12 10:20:42;;;;;;;0.00;0.00;;;;;;;-145.06;100.00;98409.69;10423363;28;20025;-75
2023/04/12 10:25:45;;;;;;;0.10;0.10;;;;;;;-145.06;100.00;98329.84;10438869;28;20439;-75
2023/04/12 10:30:50;;;;;;;0.10;0.10;;;;;;;-145.06;100.00;98522.34;10418746;28;20028;-76
2023/04/12 10:36:01;;;;;;;0.00;0.00;;;;;;;-145.06;100.00;98579.69;10417928;28;20013;-76
2023/04/12 10:41:21;;;;;;;0.00;0.00;;;;;;;-145.06;100.00;98454.75;10441328;28;20029;-75
2023/04/12 10:46:39;;;;;;;0.00;0.00;;;;;;;-145.06;100.00;98524.38;10426888;28;20079;-76
2023/04/12 10:51:59;;;;;;;0.10;0.10;;;;;;;-145.06;100.00;98565.34;10445968;28;20459;-75
2023/04/12 10:57:01;;;;;;;0.10;0.10;;;;;;;-145.06;100.00;98553.06;10437891;28;20113;-75
2023/04/12 11:02:10;;;;;;;0.10;0.10;;;;;;;-145.06;100.00;98720.97;10442750;28;20035;-75
2023/04/12 11:07:11;;;;;;;0.00;0.00;;;;;;;-145.06;100.00;98757.84;10433576;28;20029;-76
2023/04/12 11:12:13;;;;;;;0.00;0.00;;;;;;;-145.06;100.00;98692.31;10441483;28;20032;-75
2023/04/12 11:17:14;;;;;;;0.00;0.00;;;;;;;-145.06;100.00;98768.09;10411018;28;20136;-76
2023/04/12 11:22:17;;;;;;;0.10;0.10;;;;;;;-145.06;100.00;98782.41;10418445;28;20115;-78
2023/04/12 11:27:22;;;;;;;0.05;0.05;;;;;;;-145.06;100.00;98772.19;10452668;28;20029;-78
2023/04/12 11:32:25;;;;;;;0.00;0.00;;;;;;;-145.06;100.00;98454.75;10421444;28;20021;-77
2023/04/12 11:37:26;;;;;;;0.00;0.00;;;;;;;-145.06;100.00;98643.16;10420922;28;20068;-78
2023/04/12 11:42:28;;;;;;;0.00;0.00;;;;;;;-145.06;100.00;98714.84;10457262;28;20017;-78
2023/04/12 11:47:28;;;;;;;0.00;0.00;;;;;;;-145.06;100.00;98774.22;10441627;28;20032;-78
2023/04/12 11:52:30;;;;;;;0.00;0.00;;;;;;;-145.06;100.00;98749.66;10461476;28;20430;-78
2023/04/12 11:57:31;;;;;;;0.10;0.10;;;;;;;-145.06;100.00;98680.03;10406775;28;20632;-78
2023/04/12 12:02:34;;;;;;;0.00;0.00;;;;;;;-145.06;100.00;98790.59;10423225;28;20382;-78
2023/04/12 12:07:35;;;;;;;0.00;0.00;;;;;;;-145.06;100.00;98753.75;10403883;28;20033;-78
2023/04/12 12:12:35;;;;;;;0.00;0.00;;;;;;;-145.06;100.00;98776.28;10435213;28;20074;-78
2023/04/12 12:17:39;;;;;;;0.00;0.00;;;;;;;-145.06;100.00;98745.56;10422209;28;20124;-78
2023/04/12 12:22:45;;;;;;;0.00;0.00;;;;;;;-145.06;100.00;98786.50;10445504;28;20028;-78
2023/04/12 12:27:49;;;;;;;0.00;0.00;;;;;;;-145.06;100.00;98499.81;10406652;28;20061;-78
2023/04/12 12:32:51;;;;;;;0.00;0.00;;;;;;;-145.06;100.00;98555.09;10420463;28;20017;-78
2023/04/12 12:37:54;;;;;;;0.00;0.00;;;;;;;-145.06;100.00;98626.78;10463808;28;20385;-79
2023/04/12 12:42:55;;;;;;;0.00;0.00;;;;;;;-145.06;100.00;98618.59;10447350;28;20025;-78
2023/04/12 12:48:03;;;;;;;0.00;0.00;;;;;;;-145.06;100.00;98585.81;10448456;28;20037;-77
2023/04/12 12:53:07;;;;;;;0.00;0.00;;;;;;;-145.06;100.00;98508.00;10425012;28;20052;-79
2023/04/12 12:58:07;;;;;;;0.00;0.00;;;;;;;-145.06;100.00;98489.56;10421860;28;20030;-78
2023/04/12 13:03:07;;;;;;;0.00;0.00;;;;;;;-145.06;100.00;98557.16;10448911;28;20026;-78
2023/04/12 13:08:08;;;;;;;0.00;0.00;;;;;;;-145.06;100.00;98575.56;10407626;28;20112;-77
2023/04/12 13:13:08;;;;;;;0.00;0.00;;;;;;;-145.06;100.00;98516.19;10440324;28;20025;-77
2023/04/12 13:18:10;;;;;;;0.00;0.00;;;;;;;-145.06;100.00;98557.16;10461242;28;20025;-77
2023/04/12 13:23:10;;;;;;;0.00;0.00;;;;;;;-145.06;100.00;98581.72;10466541;28;20070;-78
2023/04/12 13:28:11;;;;;;;0.00;0.00;;;;;;;-145.06;100.00;98600.16;10470966;28;20314;-78
2023/04/12 13:33:11;;;;;;;0.00;0.00;;;;;;;-145.06;100.00;98569.44;10452528;28;20124;-78
2023/04/12 13:38:12;;;;;;;0.00;0.00;;;;;;;-145.06;100.00;98585.81;10430107;28;20057;-78
2023/04/12 13:43:12;;;;;;;0.00;0.00;;;;;;;-145.06;100.00;98585.81;10438036;28;20019;-78
2023/04/12 13:48:12;;;;;;;0.00;0.00;;;;;;;-145.06;100.00;98616.53;10469227;28;20264;-78
2023/04/12 13:53:13;;;;;;;0.08;0.08;;;;;;;-145.06;100.00;98628.81;10440595;28;20503;-78
2023/04/12 13:58:13;;;;;;;0.00;0.00;;;;;;;-145.06;100.00;98620.63;10460053;28;20108;-78
2023/04/12 14:03:13;;;;;;;0.10;0.10;;;;;;;-145.06;100.00;98581.72;10451568;28;20025;-78
2023/04/12 14:08:13;;;;;;;0.00;0.00;;;;;;;-145.06;100.00;98630.88;10467877;28;20193;-78
2023/04/12 14:13:14;;;;;;;0.00;0.00;;;;;;;-145.06;100.00;98561.25;10465416;28;20391;-78
2023/04/12 14:18:14;;;;;;;0.00;0.00;;;;;;;-145.06;100.00;98540.75;10411632;28;20041;-77
2023/04/12 14:23:15;;;;;;;0.00;0.00;;;;;;;-145.06;100.00;98534.63;10420841;28;20500;-78
2023/04/12 14:28:20;;;;;;;0.00;0.00;;;;;;;-145.06;100.00;98581.72;10445301;28;20090;-77
2023/04/12 14:33:20;;;;;;;0.00;0.00;;;;;;;-145.06;100.00;98532.56;10445697;28;20091;-77
2023/04/12 14:38:21;;;;;;;0.00;0.00;;;;;;;-145.06;100.00;98637.00;10445625;28;20028;-78
2023/04/12 14:43:21;;;;;;;0.00;0.00;;;;;;;-145.06;100.00;98589.91;10444422;28;20028;-77
2023/04/12 14:48:22;;;;;;;0.00;0.00;;;;;;;-145.06;100.00;98497.75;10456190;28;20518;-77
2023/04/12 14:53:22;;;;;;;0.10;0.10;;;;;;;-145.06;100.00;98639.06;10432900;28;20029;-77
2023/04/12 14:58:22;;;;;;;0.00;0.00;;;;;;;-145.06;100.00;98630.88;10419253;28;20040;-77
2023/04/12 15:03:25;;;;;;;0.00;0.00;;;;;;;-145.06;100.00;98612.44;10417653;28;20024;-76
2023/04/12 15:08:27;;;;;;;0.10;0.10;;;;;;;-145.06;100.00;98612.44;10416501;28;20025;-77
2023/04/12 15:13:28;;;;;;;0.10;0.10;;;;;;;-145.06;100.00;98647.25;10456920;28;20017;-77
2023/04/12 15:18:28;;;;;;;0.00;0.00;;;;;;;-145.06;100.00;98575.56;10457387;28;20389;-77
2023/04/12 15:23:28;;;;;;;0.10;0.10;;;;;;;-145.06;100.00;98542.81;10448687;28;20025;-77
2023/04/12 15:28:31;;;;;;;0.00;0.00;;;;;;;-145.06;100.00;98581.72;10464236;23;20045;-75
2023/04/12 15:33:33;;;;;;;0.00;0.00;;;;;;;-145.06;100.00;98579.69;10475102;28;20689;-77
2023/04/12 15:38:41;;;;;;;0.00;0.00;;;;;;;-145.06;100.00;98585.81;10409851;28;20124;-77
2023/04/12 15:43:43;;;;;;;0.08;0.08;;;;;;;-145.06;100.00;98583.78;10421416;28;20029;-77
2023/04/12 15:48:44;;;;;;;0.10;0.10;;;;;;;-145.06;100.00;98589.91;10422692;28;20507;-77
2023/04/12 15:53:44;;;;;;;0.00;0.00;;;;;;;-145.06;100.00;98583.78;10392878;28;20022;-77
2023/04/12 15:58:45;;;;;;;0.00;0.00;;;;;;;-145.06;100.00;98565.34;10406729;28;20025;-77
2023/04/12 16:03:47;;;;;;;0.10;0.10;;;;;;;-145.06;100.00;98489.56;10396797;28;20355;-76
2023/04/12 16:08:52;;;;;;;0.00;0.00;;;;;;;-145.06;100.00;98626.78;10418572;28;20365;-76
2023/04/12 16:13:53;;;;;;;0.00;0.00;;;;;;;-145.06;100.00;98596.06;10403088;28;20021;-77
2023/04/12 16:18:54;;;;;;;0.03;0.03;;;;;;;-145.06;100.00;98491.63;10411037;28;20029;-77
2023/04/12 16:23:54;;;;;;;0.10;0.10;;;;;;;-145.06;100.00;98581.72;10423891;28;20033;-75
2023/04/12 16:28:55;;;;;;;0.10;0.10;;;;;;;-145.06;100.00;98567.38;10422527;28;20451;-76
2023/04/12 16:33:56;;;;;;;0.00;0.00;;;;;;;-145.06;100.00;98606.28;10428204;28;20291;-77
2023/04/12 16:38:58;;;;;;;0.00;0.00;;;;;;;-145.06;100.00;98639.06;10426048;28;20028;-77
2023/04/12 16:44:00;;;;;;;0.00;0.00;;;;;;;-145.06;100.00;98610.38;10426313;28;20489;-76
2023/04/12 16:49:02;;;;;;;0.00;0.00;;;;;;;-145.06;100.00;98589.91;10417098;28;20025;-76
2023/04/12 16:54:02;;;;;;;0.00;0.00;;;;;;;-145.06;100.00;98587.88;10431700;28;20151;-76
2023/04/12 16:59:03;;;;;;;0.00;0.00;;;;;;;-145.06;100.00;98561.25;10438286;28;20288;-76
2023/04/12 17:04:05;;;;;;;0.08;0.08;;;;;;;-145.06;100.00;98553.06;10400534;28;20451;-76
2023/04/12 17:09:05;;;;;;;0.00;0.00;;;;;;;-145.06;100.00;98573.53;10404337;28;20510;-76
2023/04/12 17:14:06;;;;;;;0.08;0.08;;;;;;;-145.06;100.00;98606.28;10421764;28;20029;-77
2023/04/12 17:19:07;;;;;;;0.00;0.00;;;;;;;-145.06;100.00;98540.75;10407140;28;20022;-76
2023/04/12 17:24:08;;;;;;;0.05;0.05;;;;;;;-145.06;100.00;98522.34;10431935;28;20025;-76
2023/04/12 17:29:08;;;;;;;0.10;0.10;;;;;;;-145.06;100.00;98575.56;10421731;28;20526;-76
2023/04/12 17:34:08;;;;;;;0.10;0.10;;;;;;;-145.06;100.00;98594.00;10420279;28;20025;-76
2023/04/12 17:39:09;;;;;;;0.00;0.00;;;;;;;-145.06;100.00;98690.25;10422544;28;20040;-76
2023/04/12 17:44:09;;;;;;;0.08;0.08;;;;;;;-145.06;100.00;98571.47;10419426;28;20021;-77
2023/04/12 17:49:09;;;;;;;0.00;0.00;;;;;;;-145.06;100.00;98596.06;10406783;28;20029;-76
2023/04/12 17:54:10;;;;;;;0.00;0.00;;;;;;;-145.06;100.00;98712.78;10429789;28;20026;-76
2023/04/12 17:59:10;;;;;;;0.00;0.00;;;;;;;-145.06;100.00;98614.50;10405565;28;20029;-76
2023/04/12 18:04:11;;;;;;;0.00;0.00;;;;;;;-145.06;100.00;98637.00;10422224;28;20043;-75
2023/04/12 18:09:11;;;;;;;0.10;0.10;;;;;;;-145.06;100.00;98665.69;10404976;28;20033;-76
2023/04/12 18:14:12;;;;;;;0.10;0.10;;;;;;;-145.06;100.00;98667.72;10438779;28;20029;-75
2023/04/12 18:19:15;;;;;;;0.03;0.03;;;;;;;-145.06;100.00;98702.53;10434411;28;20035;-75
2023/04/12 18:24:15;;;;;;;0.10;0.10;;;;;;;-145.06;100.00;98692.31;10421830;28;20341;-76
2023/04/12 18:29:16;;;;;;;0.10;0.10;;;;;;;-145.06;100.00;98663.63;10407856;28;20498;-76
2023/04/12 18:34:17;;;;;;;0.00;0.00;;;;;;;-145.06;100.00;98667.72;10423616;28;20030;-76
2023/04/12 18:39:19;;;;;;;0.00;0.00;;;;;;;-145.06;100.00;98725.06;10427872;28;20036;-74
2023/04/12 18:44:19;;;;;;;0.00;0.00;;;;;;;-145.06;100.00;98727.13;10398968;28;20033;-75
2023/04/12 18:49:20;;;;;;;0.00;0.00;;;;;;;-145.06;100.00;98743.50;10404485;28;20029;-75
2023/04/12 18:54:21;;;;;;;0.10;0.10;;;;;;;-145.06;100.00;98723.03;10405021;28;20084;-76
2023/04/12 18:59:21;;;;;;;0.00;0.00;;;;;;;-145.06;100.00;98714.84;10416723;28;20084;-76
2023/04/12 19:04:21;;;;;;;0.00;0.00;;;;;;;-145.06;100.00;98764.00;10414425;28;20028;-76
2023/04/12 19:09:22;;;;;;;0.10;0.10;;;;;;;-145.06;100.00;98817.22;10407755;28;20021;-76
2023/04/12 19:14:22;;;;;;;0.07;0.07;;;;;;;-145.06;100.00;98811.09;10398648;28;20025;-76
2023/04/12 19:19:22;;;;;;;0.00;0.00;;;;;;;-145.06;100.00;98815.19;10397667;28;20388;-76
2023/04/12 19:24:23;;;;;;;0.00;0.00;;;;;;;-145.06;100.00;98807.00;10425453;28;20430;-76
2023/04/12 19:29:24;;;;;;;0.00;0.00;;;;;;;-145.06;100.00;98825.44;10414668;28;20271;-76
2023/04/12 19:34:25;;;;;;;0.00;0.00;;;;;;;-145.06;100.00;98759.88;10407305;28;20287;-76
2023/04/12 19:39:26;;;;;;;0.10;0.10;;;;;;;-145.06;100.00;98798.81;10414810;28;20112;-75
2023/04/12 19:44:26;;;;;;;0.00;0.00;;;;;;;-145.06;100.00;98839.75;10434398;28;20387;-75
2023/04/12 19:49:26;;;;;;;0.00;0.00;;;;;;;-145.06;100.00;98878.69;10424571;28;20286;-76
2023/04/12 19:54:27;;;;;;;0.00;0.00;;;;;;;-145.06;100.00;98872.53;10413599;28;20022;-76
2023/04/12 19:59:29;;;;;;;0.00;0.00;;;;;;;-145.06;100.00;98831.56;10396126;28;20727;-75
2023/04/12 20:04:29;;;;;;;0.00;0.00;;;;;;;-145.06;100.00;98944.22;10395655;28;20017;-76
2023/04/12 20:09:30;;;;;;;0.00;0.00;;;;;;;-145.06;100.00;98901.19;10413181;28;20111;-75
2023/04/12 20:14:34;;;;;;;0.00;0.00;;;;;;;-145.06;100.00;98852.06;10392542;28;20028;-76
2023/04/12 20:19:35;;;;;;;0.00;0.00;;;;;;;-145.06;100.00;98888.91;10401642;28;20021;-76
2023/04/12 20:24:36;;;;;;;0.00;0.00;;;;;;;-145.06;100.00;98942.16;10393670;28;20121;-76
2023/04/12 20:29:38;;;;;;;0.00;0.00;;;;;;;-145.06;100.00;98960.59;10399760;28;20049;-75
2023/04/12 20:34:45;;;;;;;0.00;0.00;;;;;;;-145.06;100.00;98770.13;10409807;28;20396;-75
2023/04/12 20:39:45;;;;;;;0.00;0.00;;;;;;;-145.06;100.00;98833.63;10408964;28;20044;-76
2023/04/12 20:44:47;;;;;;;0.00;0.00;;;;;;;-145.06;100.00;98890.97;10417767;28;20022;-76
2023/04/12 20:49:47;;;;;;;0.00;0.00;;;;;;;-145.06;100.00;98970.84;10410156;28;20045;-75
2023/04/12 20:54:47;;;;;;;0.00;0.00;;;;;;;-145.06;100.00;99065.06;10408367;28;20412;-75
2023/04/12 20:59:50;;;;;;;0.00;0.00;;;;;;;-145.06;100.00;98981.06;10410624;28;20029;-75
2023/04/12 21:04:51;;;;;;;0.00;0.00;;;;;;;-145.06;100.00;99058.91;10431521;28;20068;-75
2023/04/12 21:09:51;;;;;;;0.00;0.00;;;;;;;-145.06;100.00;99022.03;10418696;28;20029;-76
2023/04/12 21:14:51;;;;;;;0.00;0.00;;;;;;;-145.06;100.00;99042.53;10425283;28;20040;-76
2023/04/12 21:19:51;;;;;;;0.00;0.00;;;;;;;-145.06;100.00;98888.91;10408143;28;20033;-76
2023/04/12 21:24:52;;;;;;;0.00;0.00;;;;;;;-145.06;100.00;99065.06;10413176;28;20484;-76
2023/04/12 21:29:52;;;;;;;0.00;0.00;;;;;;;-145.06;100.00;98974.94;10424582;28;20108;-76
2023/04/12 21:34:52;;;;;;;0.00;0.00;;;;;;;-145.06;100.00;98966.75;10402726;28;20297;-76
2023/04/12 21:39:53;;;;;;;0.00;0.00;;;;;;;-145.06;100.00;99085.53;10405739;28;20770;-76
2023/04/12 21:44:53;;;;;;;0.00;0.00;;;;;;;-145.06;100.00;99089.63;10425910;28;20032;-76
2023/04/12 21:49:53;;;;;;;0.00;0.00;;;;;;;-145.06;100.00;99087.56;10435124;28;20033;-76
2023/04/12 21:54:54;;;;;;;0.00;0.00;;;;;;;-145.06;100.00;99056.84;10424980;28;20061;-76
2023/04/12 21:59:54;;;;;;;0.00;0.00;;;;;;;-145.06;100.00;99114.19;10414899;28;20029;-76
2023/04/12 22:04:55;;;;;;;0.00;0.00;;;;;;;-145.06;100.00;99134.69;10426262;28;20017;-76
2023/04/12 22:09:57;;;;;;;0.00;0.00;;;;;;;-145.06;100.00;99089.63;10421760;28;20037;-75
2023/04/12 22:14:58;;;;;;;0.00;0.00;;;;;;;-145.06;100.00;99050.72;10429708;28;20294;-76
2023/04/12 22:19:59;;;;;;;0.00;0.00;;;;;;;-145.06;100.00;99017.94;10414652;28;20035;-75
2023/04/12 22:24:59;;;;;;;0.00;0.00;;;;;;;-145.06;100.00;99073.25;10394579;28;20033;-76
2023/04/12 22:30:00;;;;;;;0.00;0.00;;;;;;;-145.06;100.00;99001.56;10421651;28;20788;-75
2023/04/12 22:35:00;;;;;;;0.00;0.00;;;;;;;-145.06;100.00;99136.72;10443588;28;20522;-75